Time;durP1;ratioP1;P1;durP2;ratioP2;P2;SDS_P1;SDS_P2;PMS_P1;PMS_P2;Temp;Humidity;BMP_temperature;BMP_pressure;BME280_temperature;BME280_humidity;BME280_pressure;Samples;Min_cycle;Max_cycle;Signal;HPM_P1;HPM_P2
2021/04/14 00:00:36;;;;;;;1999.90;999.90;;;17.70;86.50;;;;;;5029710;28;20244;-46
2021/04/14 00:03:05;;;;;;;1999.90;999.90;;;17.60;88.20;;;;;;5029725;28;20529;-45
2021/04/14 00:05:36;;;;;;;1999.90;999.90;;;17.60;90.50;;;;;;5029682;28;20166;-47
2021/04/14 00:08:05;;;;;;;1999.90;999.90;;;17.50;90.90;;;;;;5029736;28;20189;-47
2021/04/14 00:10:35;;;;;;;1999.90;999.90;;;17.50;91.00;;;;;;5029638;28;20166;-47
2021/04/14 00:13:05;;;;;;;1999.90;999.90;;;17.40;91.40;;;;;;5029510;28;20162;-45
2021/04/14 00:15:36;;;;;;;1999.90;999.90;;;17.40;91.10;;;;;;5029450;28;20236;-48
2021/04/14 00:18:04;;;;;;;1999.90;999.90;;;17.50;90.90;;;;;;5029619;28;20173;-49
2021/04/14 00:20:31;;;;;;;1999.90;999.90;;;17.40;90.90;;;;;;5029226;28;20304;-50
2021/04/14 00:22:58;;;;;;;1999.90;999.90;;;17.40;90.90;;;;;;5029344;28;20170;-45
2021/04/14 00:25:28;;;;;;;1999.90;999.90;;;17.30;91.10;;;;;;5029305;28;20170;-49
2021/04/14 00:27:55;;;;;;;1999.90;999.90;;;17.30;91.20;;;;;;5029359;28;20151;-50
2021/04/14 00:30:23;;;;;;;1999.90;999.90;;;17.30;91.40;;;;;;5029258;28;20162;-46
2021/04/14 00:32:50;;;;;;;1999.90;999.90;;;17.30;91.70;;;;;;5029201;28;20166;-45
2021/04/14 00:35:22;;;;;;;1999.90;999.90;;;17.30;91.40;;;;;;5029120;28;20292;-44
2021/04/14 00:37:49;;;;;;;1999.90;999.90;;;17.40;90.90;;;;;;5029227;28;20193;-45
2021/04/14 00:40:27;;;;;;;1999.90;999.90;;;17.40;90.90;;;;;;5029670;28;20181;-46
2021/04/14 00:42:55;;;;;;;1999.90;999.90;;;17.40;90.90;;;;;;5032465;28;20158;-44
2021/04/14 00:45:23;;;;;;;1999.90;999.90;;;17.40;91.00;;;;;;5032437;28;20307;-45
2021/04/14 00:47:50;;;;;;;1999.90;999.90;;;17.30;91.40;;;;;;5032401;28;20215;-47
2021/04/14 00:50:22;;;;;;;1999.90;999.90;;;17.30;91.80;;;;;;5032400;28;20292;-49
2021/04/14 00:52:49;;;;;;;1999.90;999.90;;;17.30;92.00;;;;;;5032468;28;20157;-46
2021/04/14 00:55:18;;;;;;;1999.90;999.90;;;17.30;92.10;;;;;;5032187;28;20569;-47
2021/04/14 00:57:45;;;;;;;1999.90;999.90;;;17.30;92.30;;;;;;5032256;28;20215;-46
2021/04/14 01:00:18;;;;;;;1999.90;999.90;;;17.30;92.90;;;;;;5032142;28;20185;-46
2021/04/14 01:02:44;;;;;;;1999.90;999.90;;;17.30;93.20;;;;;;5030966;28;20181;-43
2021/04/14 01:05:17;;;;;;;1999.90;999.90;;;17.30;93.30;;;;;;5032149;28;20198;-43
2021/04/14 01:07:44;;;;;;;1999.90;999.90;;;17.30;93.40;;;;;;5032049;28;20158;-47
2021/04/14 01:10:12;;;;;;;1999.90;999.90;;;17.30;93.50;;;;;;5032270;28;20170;-46
2021/04/14 01:12:39;;;;;;;1999.90;999.90;;;17.20;93.80;;;;;;5032127;28;20166;-45
2021/04/14 01:15:12;;;;;;;1999.90;999.90;;;17.20;94.00;;;;;;5032160;28;20198;-44
2021/04/14 01:17:39;;;;;;;1999.90;999.90;;;17.10;94.30;;;;;;5032113;28;20206;-44
2021/04/14 01:20:07;;;;;;;1999.90;999.90;;;17.10;94.30;;;;;;5031739;28;20321;-44
2021/04/14 01:22:35;;;;;;;1999.90;999.90;;;17.00;94.50;;;;;;5031833;28;20162;-43
2021/04/14 01:25:11;;;;;;;1999.90;999.90;;;17.10;94.90;;;;;;5031902;28;20177;-44
2021/04/14 01:27:38;;;;;;;1999.90;999.90;;;17.00;94.90;;;;;;5031954;28;20564;-44
2021/04/14 01:30:30;;;;;;;1999.90;999.90;;;17.00;94.90;;;;;;5031896;28;20205;-44
2021/04/14 01:32:58;;;;;;;1999.90;999.90;;;17.00;94.90;;;;;;5031710;28;20165;-44
2021/04/14 01:35:28;;;;;;;1999.90;999.90;;;16.90;94.90;;;;;;5031643;28;20194;-44
2021/04/14 01:37:55;;;;;;;1999.90;999.90;;;16.90;94.90;;;;;;5031520;28;20178;-44
2021/04/14 01:40:25;;;;;;;1999.90;999.90;;;16.90;95.10;;;;;;5031654;28;20166;-45
2021/04/14 01:42:52;;;;;;;1999.90;999.90;;;16.90;94.90;;;;;;5031520;28;20172;-44
2021/04/14 01:45:23;;;;;;;1999.90;999.90;;;16.90;94.70;;;;;;5031552;28;20174;-44
2021/04/14 01:47:50;;;;;;;1999.90;999.90;;;16.90;94.70;;;;;;5031542;28;20158;-45
2021/04/14 01:50:17;;;;;;;1999.90;999.90;;;16.80;95.20;;;;;;5031418;28;20177;-43
2021/04/14 01:52:43;;;;;;;1999.90;999.90;;;16.80;95.00;;;;;;5031195;28;20175;-43
2021/04/14 01:55:11;;;;;;;1999.90;999.90;;;16.80;94.90;;;;;;5031360;28;20186;-43
2021/04/14 01:57:37;;;;;;;1999.90;999.90;;;16.80;94.60;;;;;;5031384;28;20533;-43
2021/04/14 02:00:14;;;;;;;1999.90;999.90;;;16.80;94.70;;;;;;5031289;28;20163;-46
2021/04/14 02:02:41;;;;;;;1999.90;999.90;;;16.80;94.60;;;;;;5031463;28;20185;-47
2021/04/14 02:05:09;;;;;;;1999.90;999.90;;;16.80;94.20;;;;;;5031234;28;20219;-48
2021/04/14 02:07:36;;;;;;;1999.90;999.90;;;16.80;93.90;;;;;;5031116;28;20176;-44
2021/04/14 02:10:06;;;;;;;1999.90;999.90;;;16.70;93.60;;;;;;5031065;28;20721;-47
2021/04/14 02:12:33;;;;;;;1999.90;999.90;;;16.60;94.20;;;;;;5031042;28;20166;-45
2021/04/14 02:15:00;;;;;;;1999.90;999.90;;;16.60;94.50;;;;;;5030821;28;20305;-49
2021/04/14 02:17:27;;;;;;;1999.90;999.90;;;16.50;94.40;;;;;;5031009;28;20164;-46
2021/04/14 02:19:54;;;;;;;1999.90;999.90;;;16.50;94.60;;;;;;5030831;28;20243;-46
2021/04/14 02:22:20;;;;;;;1999.90;999.90;;;16.50;94.60;;;;;;5030957;28;20569;-46
2021/04/14 02:24:47;;;;;;;1999.90;999.90;;;16.50;94.80;;;;;;5030852;28;20169;-44
2021/04/14 02:27:14;;;;;;;1999.90;999.90;;;16.40;94.80;;;;;;5030992;28;20193;-48
2021/04/14 02:29:41;;;;;;;1999.90;999.90;;;16.40;94.80;;;;;;5030794;28;20561;-44
2021/04/14 02:32:08;;;;;;;1999.90;999.90;;;16.50;94.70;;;;;;5030803;28;20253;-47
2021/04/14 02:34:35;;;;;;;1999.90;999.90;;;16.50;94.50;;;;;;5030660;28;20193;-46
2021/04/14 02:37:01;;;;;;;1999.90;999.90;;;16.50;94.60;;;;;;5030704;28;20174;-45
2021/04/14 02:39:29;;;;;;;1999.90;999.90;;;16.50;94.60;;;;;;5030655;28;20212;-43
2021/04/14 02:41:56;;;;;;;1999.90;999.90;;;16.40;94.90;;;;;;5030581;28;20575;-44
2021/04/14 02:44:23;;;;;;;1999.90;999.90;;;16.40;94.60;;;;;;5030579;28;20215;-45
2021/04/14 02:46:49;;;;;;;1999.90;999.90;;;16.40;94.80;;;;;;5030559;28;20647;-43
2021/04/14 02:49:16;;;;;;;1999.90;999.90;;;16.40;94.70;;;;;;5030656;28;20169;-43
2021/04/14 02:51:43;;;;;;;1999.90;999.90;;;16.30;94.60;;;;;;5030498;28;20510;-44
2021/04/14 02:54:10;;;;;;;1999.90;999.90;;;16.20;95.10;;;;;;5030380;28;20525;-44
2021/04/14 02:56:37;;;;;;;1999.90;999.90;;;16.20;95.20;;;;;;5030460;28;20174;-42
2021/04/14 02:59:04;;;;;;;1999.90;999.90;;;16.20;95.20;;;;;;5030388;28;20162;-45
2021/04/14 03:01:31;;;;;;;1999.90;999.90;;;16.20;95.40;;;;;;5030350;28;20196;-47
2021/04/14 03:03:58;;;;;;;1999.90;999.90;;;16.20;95.10;;;;;;5029416;28;20170;-47
2021/04/14 03:06:24;;;;;;;1999.90;999.90;;;16.10;95.30;;;;;;5030184;28;20178;-44
2021/04/14 03:08:51;;;;;;;1999.90;999.90;;;16.10;95.80;;;;;;5030177;28;20200;-46
2021/04/14 03:11:18;;;;;;;1999.90;999.90;;;16.10;95.60;;;;;;5030276;28;20299;-47
2021/04/14 03:13:45;;;;;;;1999.90;999.90;;;16.10;95.70;;;;;;5030179;28;20165;-44
2021/04/14 03:16:12;;;;;;;1999.90;999.90;;;16.00;95.50;;;;;;5030031;28;20259;-45
2021/04/14 03:18:40;;;;;;;1999.90;999.90;;;16.10;95.40;;;;;;5029764;28;20177;-43
2021/04/14 03:21:07;;;;;;;1999.90;999.90;;;16.10;95.50;;;;;;5030037;28;20188;-52
2021/04/14 03:23:34;;;;;;;1999.90;999.90;;;16.00;95.50;;;;;;5029827;28;20253;-45
2021/04/14 03:26:00;;;;;;;1999.90;999.90;;;16.00;95.60;;;;;;5029922;28;20230;-46
2021/04/14 03:28:27;;;;;;;1999.90;999.90;;;15.90;95.60;;;;;;5029960;28;20174;-46
2021/04/14 03:30:54;;;;;;;1999.90;999.90;;;15.90;95.80;;;;;;5029826;28;20514;-45
2021/04/14 03:33:21;;;;;;;1999.90;999.90;;;15.90;95.80;;;;;;5029981;28;20166;-45
2021/04/14 03:35:48;;;;;;;1999.90;999.90;;;15.90;95.80;;;;;;5029761;28;20210;-46
2021/04/14 03:38:15;;;;;;;1999.90;999.90;;;15.90;95.90;;;;;;5029765;28;20170;-47
2021/04/14 03:40:42;;;;;;;1999.90;999.90;;;15.90;96.10;;;;;;5029688;28;20173;-45
2021/04/14 03:43:08;;;;;;;1999.90;999.90;;;15.90;96.30;;;;;;5029895;28;20579;-45
2021/04/14 03:45:42;;;;;;;1999.90;999.90;;;15.80;96.60;;;;;;5029541;28;20169;-44
2021/04/14 03:48:10;;;;;;;1999.90;999.90;;;15.80;96.80;;;;;;5029603;28;20245;-45
2021/04/14 03:50:39;;;;;;;1999.90;999.90;;;15.70;97.20;;;;;;5029512;28;20182;-48
2021/04/14 03:53:21;;;;;;;1999.90;999.90;;;15.70;97.20;;;;;;5029703;28;20697;-45
2021/04/14 03:56:10;;;;;;;1999.90;999.90;;;15.80;97.10;;;;;;5029802;28;20213;-46
2021/04/14 03:58:38;;;;;;;1999.90;999.90;;;15.80;96.50;;;;;;5029651;28;20214;-47
2021/04/14 04:01:29;;;;;;;1999.90;999.90;;;15.80;96.70;;;;;;5029629;28;20166;-43
2021/04/14 04:03:58;;;;;;;1999.90;999.90;;;15.80;96.50;;;;;;5032101;28;20189;-47
2021/04/14 04:06:26;;;;;;;1999.90;999.90;;;15.80;96.40;;;;;;5029501;28;20177;-42
2021/04/14 04:08:54;;;;;;;1999.90;999.90;;;15.80;96.50;;;;;;5029632;28;20170;-46
2021/04/14 04:11:23;;;;;;;1999.90;999.90;;;15.80;96.50;;;;;;5029491;28;20173;-45
2021/04/14 04:13:51;;;;;;;1999.90;999.90;;;15.70;96.70;;;;;;5029356;28;20166;-44
2021/04/14 04:16:19;;;;;;;1999.90;999.90;;;15.70;96.90;;;;;;5032601;28;20210;-46
2021/04/14 04:18:49;;;;;;;1999.90;999.90;;;15.70;96.90;;;;;;5032609;28;20268;-48
2021/04/14 04:21:17;;;;;;;1999.90;999.90;;;15.70;96.70;;;;;;5032750;28;20527;-43
2021/04/14 04:23:44;;;;;;;1999.90;999.90;;;15.70;96.80;;;;;;5032687;28;20170;-48
2021/04/14 04:26:12;;;;;;;1999.90;999.90;;;15.80;96.80;;;;;;5032489;28;20166;-44
2021/04/14 04:28:41;;;;;;;1999.90;999.90;;;15.80;96.70;;;;;;5032349;28;20649;-48
2021/04/14 04:31:08;;;;;;;1999.90;999.90;;;15.80;96.50;;;;;;5032566;28;20181;-46
2021/04/14 04:33:35;;;;;;;1999.90;999.90;;;15.80;96.40;;;;;;5032582;28;20170;-44
2021/04/14 04:36:03;;;;;;;1999.90;999.90;;;15.80;96.30;;;;;;5031993;28;20228;-45
2021/04/14 04:38:34;;;;;;;1999.90;999.90;;;15.80;96.40;;;;;;5015609;28;20174;-44
2021/04/14 04:41:04;;;;;;;1999.90;999.90;;;15.80;96.60;;;;;;5032334;28;20205;-43
2021/04/14 04:43:32;;;;;;;1999.90;999.90;;;15.80;96.70;;;;;;5032503;28;20166;-47
2021/04/14 04:46:01;;;;;;;1999.90;999.90;;;15.70;96.60;;;;;;5032342;28;20531;-44
2021/04/14 04:48:31;;;;;;;1999.90;999.90;;;15.80;96.70;;;;;;5030910;28;20703;-46
2021/04/14 04:50:58;;;;;;;1999.90;999.90;;;15.70;96.70;;;;;;5032119;28;20176;-47
2021/04/14 04:53:27;;;;;;;1999.90;999.90;;;15.70;96.80;;;;;;5030887;28;20173;-45
2021/04/14 04:55:54;;;;;;;1999.90;999.90;;;15.70;97.10;;;;;;5031942;28;20216;-47
2021/04/14 04:58:25;;;;;;;1999.90;999.90;;;15.60;96.90;;;;;;5030550;28;20170;-45
2021/04/14 05:00:55;;;;;;;1999.90;999.90;;;15.60;96.40;;;;;;5032019;28;20193;-44
2021/04/14 05:03:25;;;;;;;1999.90;999.90;;;15.60;95.90;;;;;;5031723;28;20655;-45
2021/04/14 05:05:57;;;;;;;1999.90;999.90;;;15.40;94.20;;;;;;5031707;28;20197;-46
2021/04/14 05:08:24;;;;;;;1999.90;999.90;;;15.30;94.00;;;;;;5032256;28;20170;-47
2021/04/14 05:10:55;;;;;;;1999.90;999.90;;;15.30;93.90;;;;;;5031507;28;20679;-45
2021/04/14 05:13:23;;;;;;;1999.90;999.90;;;15.20;94.00;;;;;;5031576;28;20234;-46
2021/04/14 05:15:52;;;;;;;1999.90;999.90;;;15.20;94.30;;;;;;5031376;28;20288;-44
2021/04/14 05:18:20;;;;;;;1999.90;999.90;;;15.20;94.80;;;;;;5029673;28;20651;-43
2021/04/14 05:20:47;;;;;;;1999.90;999.90;;;15.10;95.10;;;;;;5029955;28;20226;-43
2021/04/14 05:23:14;;;;;;;1999.90;999.90;;;15.20;95.10;;;;;;5031459;28;20174;-45
2021/04/14 05:25:45;;;;;;;1999.90;999.90;;;15.20;95.20;;;;;;5030646;28;20640;-46
2021/04/14 05:28:17;;;;;;;1999.90;999.90;;;15.20;95.40;;;;;;5031081;28;20170;-44
2021/04/14 05:30:44;;;;;;;1999.90;999.90;;;15.30;95.60;;;;;;5031130;28;20150;-46
2021/04/14 05:33:12;;;;;;;1999.90;999.90;;;15.40;95.50;;;;;;5029947;28;20530;-46
2021/04/14 05:35:42;;;;;;;1999.90;999.90;;;15.40;95.40;;;;;;5029676;28;20210;-42
2021/04/14 05:38:13;;;;;;;1999.90;999.90;;;15.40;95.50;;;;;;5030893;28;20170;-44
2021/04/14 05:40:42;;;;;;;1999.90;999.90;;;15.50;95.40;;;;;;5029836;28;20640;-44
2021/04/14 05:43:19;;;;;;;1999.90;999.90;;;15.60;94.90;;;;;;5030719;28;20266;-45
2021/04/14 05:45:52;;;;;;;1999.90;999.90;;;15.60;94.90;;;;;;5030721;28;20230;-43
2021/04/14 05:48:23;;;;;;;1999.90;999.90;;;15.60;94.80;;;;;;5029842;28;20172;-44
2021/04/14 05:50:56;;;;;;;1999.90;999.90;;;15.60;94.60;;;;;;5030718;28;20173;-42
2021/04/14 05:53:23;;;;;;;1999.90;999.90;;;15.60;94.80;;;;;;5030949;28;20192;-44
2021/04/14 05:55:53;;;;;;;1999.90;999.90;;;15.60;94.80;;;;;;5030729;28;20201;-43
2021/04/14 05:58:23;;;;;;;1999.90;999.90;;;15.60;94.80;;;;;;5029510;28;20635;-48
2021/04/14 06:00:50;;;;;;;1999.90;999.90;;;15.70;94.80;;;;;;5029999;28;20185;-46
2021/04/14 06:03:25;;;;;;;1999.90;999.90;;;15.80;95.10;;;;;;5031962;28;20211;-44
2021/04/14 06:05:59;;;;;;;1999.90;999.90;;;16.00;94.00;;;;;;5030844;28;20176;-43
2021/04/14 06:08:28;;;;;;;1999.90;999.90;;;16.30;93.90;;;;;;5028226;28;20164;-43
2021/04/14 06:10:58;;;;;;;1999.90;999.90;;;16.60;93.20;;;;;;5028955;28;20675;-44
2021/04/14 06:13:26;;;;;;;1999.90;999.90;;;16.80;92.70;;;;;;5029692;28;20162;-43
2021/04/14 06:15:53;;;;;;;1999.90;999.90;;;17.00;92.10;;;;;;5029464;28;20202;-48
2021/04/14 06:18:21;;;;;;;1999.90;999.90;;;17.10;91.90;;;;;;5030319;28;20178;-44
2021/04/14 06:20:48;;;;;;;1999.90;999.90;;;17.30;92.20;;;;;;5029744;28;20225;-42
2021/04/14 06:23:18;;;;;;;1999.90;999.90;;;17.50;91.50;;;;;;5029720;28;20252;-45
2021/04/14 06:28:29;;;;;;;1999.90;999.90;;;17.80;91.50;;;;;;5029534;28;20166;-40
2021/04/14 06:30:56;;;;;;;1999.90;999.90;;;17.80;91.40;;;;;;5030002;28;20563;-37
2021/04/14 06:33:24;;;;;;;1999.90;999.90;;;17.90;91.10;;;;;;5029290;28;20257;-47
2021/04/14 06:35:55;;;;;;;1999.90;999.90;;;18.00;91.10;;;;;;5029418;28;20206;-46
2021/04/14 06:38:25;;;;;;;1999.90;999.90;;;18.10;90.70;;;;;;5028268;28;20628;-46
2021/04/14 06:44:29;;;;;;;1999.90;999.90;;;18.40;90.30;;;;;;5029986;28;20165;-46
2021/04/14 06:46:57;;;;;;;1999.90;999.90;;;18.60;90.10;;;;;;5038015;27;20166;-48
2021/04/14 06:49:38;;;;;;;1999.90;999.90;;;18.90;88.90;;;;;;5009538;28;20187;-51
2021/04/14 06:52:43;;;;;;;1999.90;999.90;;;19.10;88.00;;;;;;5027147;28;20170;-49
2021/04/14 06:55:26;;;;;;;1999.90;999.90;;;19.30;85.80;;;;;;4995561;28;20225;-49
2021/04/14 06:58:02;;;;;;;1999.90;999.90;;;19.40;84.10;;;;;;5029291;28;20260;-47
2021/04/14 07:00:29;;;;;;;1999.90;999.90;;;19.50;83.60;;;;;;5029885;28;20527;-48
2021/04/14 07:03:09;;;;;;;1999.90;999.90;;;19.70;82.70;;;;;;5028540;28;20804;-45
2021/04/14 07:05:39;;;;;;;1999.90;999.90;;;19.80;81.60;;;;;;5029042;28;20261;-45
2021/04/14 07:08:21;;;;;;;1999.90;999.90;;;20.00;80.40;;;;;;5028963;28;20170;-45
2021/04/14 07:10:55;;;;;;;1999.90;999.90;;;20.20;79.60;;;;;;5029163;28;20233;-47
2021/04/14 07:13:22;;;;;;;1999.90;999.90;;;20.30;78.40;;;;;;5028146;28;20192;-45
2021/04/14 07:15:52;;;;;;;1999.90;999.90;;;20.50;77.10;;;;;;5050059;27;20194;-48
2021/04/14 07:18:30;;;;;;;1999.90;999.90;;;20.60;77.20;;;;;;5101563;27;20178;-45
2021/04/14 07:21:07;;;;;;;1999.90;999.90;;;20.60;76.90;;;;;;5076914;27;20659;-48
2021/04/14 07:23:53;;;;;;;1999.90;999.90;;;20.80;76.70;;;;;;5029101;28;20173;-46
2021/04/14 07:26:22;;;;;;;1999.90;999.90;;;21.10;75.70;;;;;;5029633;28;20169;-44
2021/04/14 07:29:08;;;;;;;1999.90;999.90;;;21.30;74.20;;;;;;5028867;28;20659;-44
2021/04/14 07:31:40;;;;;;;1999.90;999.90;;;21.50;73.10;;;;;;5034889;28;20158;-52
2021/04/14 07:34:22;;;;;;;1999.90;999.90;;;21.60;72.90;;;;;;5069231;28;20178;-41
2021/04/14 07:37:21;;;;;;;1999.90;999.90;;;21.80;71.80;;;;;;5133398;27;20175;-57
2021/04/14 07:40:24;;;;;;;1999.90;999.90;;;22.20;70.30;;;;;;5019785;28;20151;-48
2021/04/14 07:43:15;;;;;;;1999.90;999.90;;;22.30;69.20;;;;;;5084629;28;20181;-39
2021/04/14 07:45:42;;;;;;;1999.90;999.90;;;22.30;68.30;;;;;;5120861;27;20249;-39
2021/04/14 07:48:14;;;;;;;1999.90;999.90;;;22.60;65.10;;;;;;5029085;28;20778;-38
2021/04/14 07:50:49;;;;;;;1999.90;999.90;;;22.80;64.80;;;;;;5031393;28;20555;-38
2021/04/14 07:53:32;;;;;;;1999.90;999.90;;;22.90;63.80;;;;;;5030776;28;20170;-43
2021/04/14 07:56:09;;;;;;;1999.90;999.90;;;23.10;63.10;;;;;;5030626;28;20190;-47
2021/04/14 07:58:39;;;;;;;1999.90;999.90;;;23.40;61.60;;;;;;5075448;27;20170;-44
2021/04/14 08:01:30;;;;;;;1999.90;999.90;;;23.70;60.30;;;;;;5136987;27;20166;-52
2021/04/14 08:04:18;;;;;;;1999.90;999.90;;;23.90;59.30;;;;;;5136772;27;20253;-44
2021/04/14 08:06:44;;;;;;;1999.90;999.90;;;24.10;60.60;;;;;;5136951;27;20621;-42
2021/04/14 08:09:18;;;;;;;1999.90;999.90;;;24.50;63.70;;;;;;5100489;27;20170;-49
2021/04/14 08:11:46;;;;;;;1999.90;999.90;;;25.10;59.00;;;;;;5032140;28;20170;-49
2021/04/14 08:14:37;;;;;;;1999.90;999.90;;;25.50;55.60;;;;;;5032423;28;20268;-46
2021/04/14 08:17:21;;;;;;;1999.90;999.90;;;26.10;52.40;;;;;;5032194;28;20177;-49
2021/04/14 08:20:01;;;;;;;1999.90;999.90;;;26.90;51.20;;;;;;5031696;28;20707;-49
2021/04/14 08:22:31;;;;;;;1999.90;999.90;;;27.40;49.60;;;;;;5032020;28;20166;-53
2021/04/14 08:25:02;;;;;;;1999.90;999.90;;;27.90;48.00;;;;;;5031135;28;20745;-53
2021/04/14 08:27:32;;;;;;;1999.90;999.90;;;28.20;46.60;;;;;;5031766;28;20166;-53
2021/04/14 08:30:10;;;;;;;1999.90;999.90;;;28.70;45.00;;;;;;5031804;28;20177;-45
2021/04/14 08:32:41;;;;;;;1999.90;999.90;;;29.20;42.80;;;;;;5031195;28;20174;-58
2021/04/14 08:35:29;;;;;;;1999.90;999.90;;;29.50;42.80;;;;;;5031691;28;20676;-48
2021/04/14 08:38:14;;;;;;;1999.90;999.90;;;30.20;40.80;;;;;;5031442;28;20167;-55
2021/04/14 08:40:57;;;;;;;1999.90;999.90;;;30.60;39.60;;;;;;5034967;27;20162;-55
2021/04/14 08:43:38;;;;;;;1999.90;999.90;;;30.90;39.00;;;;;;5027093;28;20587;-46
2021/04/14 08:46:31;;;;;;;1999.90;999.90;;;30.90;38.50;;;;;;5031372;28;20628;-45
2021/04/14 08:49:03;;;;;;;1999.90;999.90;;;30.80;38.40;;;;;;5030699;28;20184;-48
2021/04/14 08:51:42;;;;;;;1999.90;999.90;;;30.70;38.40;;;;;;5031129;28;20174;-50
2021/04/14 08:54:13;;;;;;;1999.90;999.90;;;30.90;38.10;;;;;;5030880;28;20205;-46
2021/04/14 08:56:40;;;;;;;1999.90;999.90;;;31.40;36.80;;;;;;5031226;28;20209;-46
2021/04/14 08:59:08;;;;;;;1999.90;999.90;;;31.20;35.40;;;;;;5030051;28;20170;-41
2021/04/14 09:01:35;;;;;;;1999.90;999.90;;;31.40;33.50;;;;;;5029633;28;20177;-46
2021/04/14 09:04:06;;;;;;;1999.90;999.90;;;31.60;33.30;;;;;;5030957;28;20612;-44
2021/04/14 09:06:33;;;;;;;1999.90;999.90;;;31.30;34.20;;;;;;5030841;28;20864;-53
2021/04/14 09:09:06;;;;;;;1999.90;999.90;;;31.50;34.10;;;;;;5031172;28;20244;-54
2021/04/14 09:11:35;;;;;;;1999.90;999.90;;;31.70;34.30;;;;;;5031479;28;20523;-55
2021/04/14 09:14:14;;;;;;;1999.90;999.90;;;31.70;34.00;;;;;;5030971;28;20158;-59
2021/04/14 09:16:58;;;;;;;1999.90;999.90;;;31.80;33.20;;;;;;5030726;28;20249;-53
2021/04/14 09:19:49;;;;;;;1999.90;999.90;;;31.80;33.40;;;;;;5029875;28;20213;-53
2021/04/14 09:22:18;;;;;;;1999.90;999.90;;;31.70;33.20;;;;;;5029787;28;20760;-55
2021/04/14 09:24:48;;;;;;;1999.90;999.90;;;32.00;34.30;;;;;;5041945;28;20254;-57
2021/04/14 09:27:21;;;;;;;1999.90;999.90;;;32.30;32.50;;;;;;5112980;28;20621;-54
2021/04/14 09:30:09;;;;;;;1999.90;999.90;;;32.40;32.20;;;;;;5114533;28;20498;-56
2021/04/14 09:32:59;;;;;;;1999.90;999.90;;;32.90;31.70;;;;;;5029383;28;20167;-52
2021/04/14 09:35:41;;;;;;;1999.90;999.90;;;33.20;31.40;;;;;;5030876;28;20280;-45
2021/04/14 09:38:49;;;;;;;1999.90;999.90;;;33.10;33.80;;;;;;5029875;28;20227;-55
2021/04/14 09:41:25;;;;;;;1999.90;999.90;;;33.30;33.20;;;;;;5021635;28;20584;-49
2021/04/14 09:43:55;;;;;;;1999.90;999.90;;;33.40;32.30;;;;;;5031826;27;20185;-48
2021/04/14 09:46:28;;;;;;;1999.90;999.90;;;33.60;32.50;;;;;;5030404;28;20533;-51
2021/04/14 09:48:55;;;;;;;1999.90;999.90;;;33.60;33.40;;;;;;5029639;28;20260;-46
2021/04/14 09:51:35;;;;;;;1999.90;999.90;;;33.80;33.70;;;;;;5030635;28;20170;-45
2021/04/14 09:54:24;;;;;;;1999.90;999.90;;;33.90;32.90;;;;;;5030579;28;20158;-46
2021/04/14 09:56:54;;;;;;;1999.90;999.90;;;34.30;32.30;;;;;;5030668;28;20247;-51
2021/04/14 09:59:41;;;;;;;1999.90;999.90;;;34.40;32.10;;;;;;5030150;28;20170;-47
2021/04/14 10:02:29;;;;;;;1999.90;999.90;;;34.40;31.40;;;;;;5023078;28;20177;-53
2021/04/14 10:05:00;;;;;;;1999.90;999.90;;;34.60;32.00;;;;;;5029433;28;20463;-54
2021/04/14 10:07:32;;;;;;;1999.90;999.90;;;34.80;30.70;;;;;;5030747;28;20173;-51
2021/04/14 10:10:22;;;;;;;1999.90;999.90;;;34.90;29.90;;;;;;5029800;28;20174;-50
2021/04/14 10:12:50;;;;;;;1999.90;999.90;;;35.10;27.20;;;;;;5009420;28;20194;-53
2021/04/14 10:15:17;;;;;;;1999.90;999.90;;;35.00;28.30;;;;;;5010503;28;20277;-55
2021/04/14 10:17:44;;;;;;;1999.90;999.90;;;34.90;27.50;;;;;;5028371;28;20186;-52
2021/04/14 10:20:20;;;;;;;1999.90;999.90;;;35.10;28.70;;;;;;5029598;28;20221;-59
2021/04/14 10:22:49;;;;;;;1999.90;999.90;;;35.20;28.00;;;;;;5029876;28;20176;-57
2021/04/14 10:25:21;;;;;;;1999.90;999.90;;;35.50;28.10;;;;;;5028401;28;20636;-55
2021/04/14 10:27:50;;;;;;;1999.90;999.90;;;35.40;28.20;;;;;;5029917;28;20632;-57
2021/04/14 10:30:22;;;;;;;1999.90;999.90;;;35.20;28.00;;;;;;5028136;28;20281;-53
2021/04/14 10:32:51;;;;;;;1999.90;999.90;;;35.20;28.90;;;;;;5029801;28;20187;-47
2021/04/14 10:35:23;;;;;;;1999.90;999.90;;;35.50;28.70;;;;;;5029855;28;20202;-49
2021/04/14 10:37:53;;;;;;;1999.90;999.90;;;35.30;28.20;;;;;;5029367;28;20174;-49
2021/04/14 10:40:29;;;;;;;1999.90;999.90;;;35.70;27.80;;;;;;5052401;27;20249;-51
2021/04/14 10:42:58;;;;;;;1999.90;999.90;;;35.80;25.70;;;;;;5051333;27;20602;-50
2021/04/14 10:45:26;;;;;;;1999.90;999.90;;;36.00;26.20;;;;;;5073836;27;20227;-50
2021/04/14 10:47:57;;;;;;;1999.90;999.90;;;36.10;25.10;;;;;;5095067;27;20180;-52
2021/04/14 10:50:31;;;;;;;1999.90;999.90;;;36.30;25.00;;;;;;5030096;28;20158;-52
2021/04/14 10:53:05;;;;;;;1999.90;999.90;;;36.40;24.40;;;;;;5081660;27;20181;-48
2021/04/14 10:55:44;;;;;;;1999.90;999.90;;;36.50;25.10;;;;;;5133803;27;20194;-50
2021/04/14 10:58:21;;;;;;;1999.90;999.90;;;36.50;24.70;;;;;;5059460;27;20162;-48
2021/04/14 11:00:50;;;;;;;1999.90;999.90;;;36.60;24.20;;;;;;5059828;27;20166;-46
2021/04/14 11:03:23;;;;;;;1999.90;999.90;;;36.70;24.20;;;;;;5035208;27;20194;-47
2021/04/14 11:05:58;;;;;;;1999.90;999.90;;;36.70;23.60;;;;;;5133503;27;20197;-46
2021/04/14 11:08:26;;;;;;;1999.90;999.90;;;36.60;23.80;;;;;;5133791;27;20150;-48
2021/04/14 11:10:56;;;;;;;1999.90;999.90;;;36.80;23.60;;;;;;5133605;27;20261;-54
2021/04/14 11:13:27;;;;;;;1999.90;999.90;;;36.90;23.00;;;;;;5133023;27;20227;-48
2021/04/14 11:15:54;;;;;;;1999.90;999.90;;;36.70;22.30;;;;;;5109357;27;20242;-44
2021/04/14 11:18:39;;;;;;;1999.90;999.90;;;36.70;23.00;;;;;;5029198;28;20648;-52
2021/04/14 11:21:20;;;;;;;1999.90;999.90;;;36.90;22.20;;;;;;5029477;28;20182;-48
2021/04/14 11:23:47;;;;;;;1999.90;999.90;;;36.80;21.90;;;;;;5028638;28;20517;-45
2021/04/14 11:26:21;;;;;;;1999.90;999.90;;;36.50;22.90;;;;;;5028959;28;20624;-51
2021/04/14 11:28:55;;;;;;;1999.90;999.90;;;36.70;24.40;;;;;;5029763;28;20643;-50
2021/04/14 11:31:43;;;;;;;1999.90;999.90;;;36.90;23.90;;;;;;5028985;28;20178;-60
2021/04/14 11:34:25;;;;;;;1999.90;999.90;;;37.40;23.00;;;;;;5029100;28;20182;-53
2021/04/14 11:37:00;;;;;;;1999.90;999.90;;;37.40;22.30;;;;;;5029113;28;20762;-44
2021/04/14 11:39:30;;;;;;;1999.90;999.90;;;36.80;22.20;;;;;;5028808;28;20285;-43
2021/04/14 11:42:16;;;;;;;1999.90;999.90;;;36.80;22.60;;;;;;5028890;28;20163;-43
2021/04/14 11:44:53;;;;;;;1999.90;999.90;;;36.80;22.80;;;;;;5028911;28;20158;-46
2021/04/14 11:47:35;;;;;;;1999.90;999.90;;;36.90;22.00;;;;;;5028710;28;20796;-47
2021/04/14 11:50:12;;;;;;;1999.90;999.90;;;37.10;22.40;;;;;;5029075;28;20697;-54
2021/04/14 11:52:50;;;;;;;1999.90;999.90;;;37.20;20.20;;;;;;5063193;28;20162;-56
2021/04/14 11:55:23;;;;;;;1999.90;999.90;;;37.50;20.70;;;;;;5132133;27;20666;-42
2021/04/14 11:58:02;;;;;;;1999.90;999.90;;;37.60;20.80;;;;;;5047838;28;20193;-62
2021/04/14 12:00:38;;;;;;;1999.90;999.90;;;37.50;20.90;;;;;;5083574;28;20170;-50
2021/04/14 12:03:21;;;;;;;1999.90;999.90;;;37.50;21.30;;;;;;5028895;28;20173;-45
2021/04/14 12:05:53;;;;;;;1999.90;999.90;;;37.50;20.40;;;;;;5028624;28;20249;-57
2021/04/14 12:08:20;;;;;;;1999.90;999.90;;;37.70;19.70;;;;;;5028252;28;20177;-56
2021/04/14 12:10:48;;;;;;;1999.90;999.90;;;37.70;19.30;;;;;;5027908;28;20168;-47
2021/04/14 12:13:15;;;;;;;1999.90;999.90;;;37.70;20.30;;;;;;5028291;28;20670;-47
2021/04/14 12:15:42;;;;;;;1999.90;999.90;;;37.70;20.30;;;;;;5028521;28;20228;-54
2021/04/14 12:18:09;;;;;;;1999.90;999.90;;;37.50;20.40;;;;;;5028690;28;20170;-43
2021/04/14 12:20:36;;;;;;;1999.90;999.90;;;37.30;20.60;;;;;;5027705;28;20220;-46
2021/04/14 12:23:03;;;;;;;1999.90;999.90;;;37.40;21.10;;;;;;5070828;28;20178;-43
2021/04/14 12:25:30;;;;;;;1999.90;999.90;;;37.40;22.00;;;;;;5028435;28;20254;-49
2021/04/14 12:27:56;;;;;;;1999.90;999.90;;;37.40;23.00;;;;;;5028146;28;20166;-55